createdAt,value
2023-02-06T00:00:57.770Z,-5.38
2023-02-06T00:04:00.578Z,-5.43
2023-02-06T00:07:02.832Z,-5.43
2023-02-06T00:10:05.693Z,-5.13
2023-02-06T00:13:08.016Z,-5.52
2023-02-06T00:16:21.652Z,-5.09
2023-02-06T00:19:23.902Z,-5.00
2023-02-06T00:22:26.480Z,-5.24
2023-02-06T00:25:28.744Z,-5.31
2023-02-06T00:28:31.352Z,-5.22
2023-02-06T00:31:33.805Z,-4.99
2023-02-06T00:34:36.547Z,-5.17
2023-02-06T00:37:38.779Z,-5.21
2023-02-06T00:40:41.463Z,-5.18
2023-02-06T00:43:43.834Z,-5.51
2023-02-06T00:46:46.386Z,-5.74
2023-02-06T00:49:48.640Z,-5.94
2023-02-06T00:52:51.318Z,-5.53
2023-02-06T00:55:53.630Z,-5.41
2023-02-06T00:58:57.327Z,-5.06
2023-02-06T01:01:59.590Z,-5.14
2023-02-06T01:05:02.535Z,-4.91
2023-02-06T01:08:04.961Z,-4.96
2023-02-06T01:11:13.396Z,-4.81
2023-02-06T01:14:15.999Z,-5.17
2023-02-06T01:17:19.127Z,-5.49
2023-02-06T01:20:22.963Z,-5.70
2023-02-06T01:23:26.076Z,-5.66
2023-02-06T01:26:28.458Z,-5.46
2023-02-06T01:29:33.332Z,-5.24
2023-02-06T01:32:40.284Z,-5.05
2023-02-06T01:35:42.990Z,-4.94
2023-02-06T01:38:46.468Z,-4.93
2023-02-06T01:41:50.959Z,-5.10
2023-02-06T01:45:21.243Z,-5.29
2023-02-06T01:48:34.835Z,-5.24
2023-02-06T01:51:37.303Z,-5.16
2023-02-06T01:54:41.066Z,-5.15
2023-02-06T01:57:44.549Z,-4.86
2023-02-06T02:00:48.541Z,-4.98
2023-02-06T02:03:55.782Z,-4.87
2023-02-06T02:07:20.188Z,-4.88
2023-02-06T02:10:22.799Z,-4.86
2023-02-06T02:13:25.108Z,-4.66
2023-02-06T02:17:00.396Z,-4.66
2023-02-06T02:20:27.953Z,-5.03
2023-02-06T02:23:33.172Z,-5.11
2023-02-06T02:26:48.123Z,-5.19
2023-02-06T02:30:02.454Z,-5.25
2023-02-06T02:33:36.769Z,-5.30
2023-02-06T02:37:07.546Z,-5.50
2023-02-06T02:40:28.560Z,-5.30
2023-02-06T02:43:38.323Z,-5.65
2023-02-06T02:46:43.737Z,-5.61
2023-02-06T02:49:46.596Z,-5.19
2023-02-06T02:52:50.775Z,-5.22
2023-02-06T02:55:53.340Z,-5.70
2023-02-06T02:59:01.309Z,-5.71
2023-02-06T03:02:11.485Z,-6.19
2023-02-06T03:05:20.192Z,-5.91
2023-02-06T03:08:34.870Z,-6.04
2023-02-06T03:11:46.891Z,-5.64
2023-02-06T03:14:58.207Z,-5.48
2023-02-06T03:18:34.966Z,-5.56
2023-02-06T03:21:39.337Z,-5.73
2023-02-06T03:24:42.126Z,-5.89
2023-02-06T03:27:46.286Z,-5.54
2023-02-06T03:30:54.088Z,-5.78
2023-02-06T03:34:04.039Z,-6.39
2023-02-06T03:37:07.117Z,-6.49
2023-02-06T03:40:10.806Z,-6.05
2023-02-06T03:43:18.776Z,-5.92
2023-02-06T03:46:23.077Z,-6.04
2023-02-06T03:49:29.637Z,-6.14
2023-02-06T03:52:38.423Z,-6.63
2023-02-06T03:55:42.977Z,-6.83
2023-02-06T03:58:45.500Z,-6.49
2023-02-06T04:01:53.436Z,-6.22
2023-02-06T04:04:59.043Z,-6.04
2023-02-06T04:08:01.390Z,-6.10
2023-02-06T04:11:04.073Z,-6.01
2023-02-06T04:14:06.318Z,-6.11
2023-02-06T04:17:09.513Z,-6.03
2023-02-06T04:20:12.119Z,-6.27
2023-02-06T04:23:14.705Z,-6.50
2023-02-06T04:26:17.274Z,-6.64
2023-02-06T04:29:19.844Z,-6.38
2023-02-06T04:32:22.197Z,-6.16
2023-02-06T04:35:24.775Z,-6.10
2023-02-06T04:38:27.039Z,-5.93
2023-02-06T04:41:29.595Z,-6.17
2023-02-06T04:44:35.838Z,-6.13
2023-02-06T04:47:38.744Z,-5.87
2023-02-06T04:50:40.989Z,-5.72
2023-02-06T04:53:43.783Z,-5.82
2023-02-06T04:56:46.491Z,-6.26
2023-02-06T04:59:49.093Z,-6.44
2023-02-06T05:02:51.438Z,-6.52
2023-02-06T05:05:54.345Z,-6.32
2023-02-06T05:08:57.892Z,-6.45
2023-02-06T05:12:00.477Z,-6.38
2023-02-06T05:15:03.976Z,-5.87
2023-02-06T05:18:07.057Z,-5.99
2023-02-06T05:21:09.265Z,-6.20
2023-02-06T05:24:11.883Z,-6.16
2023-02-06T05:27:14.245Z,-6.12
2023-02-06T05:30:17.504Z,-6.44
2023-02-06T05:33:19.756Z,-6.33
2023-02-06T05:36:24.736Z,-6.27
2023-02-06T05:39:27.043Z,-6.43
2023-02-06T05:42:29.533Z,-6.39
2023-02-06T05:45:31.742Z,-6.46
2023-02-06T05:48:34.972Z,-6.21
2023-02-06T05:51:37.196Z,-6.18
2023-02-06T05:54:39.750Z,-5.97
2023-02-06T05:57:41.992Z,-5.60
2023-02-06T06:00:45.410Z,-5.85
2023-02-06T06:03:48.042Z,-5.70
2023-02-06T06:06:50.318Z,-5.88
2023-02-06T06:09:53.392Z,-5.59
2023-02-06T06:12:57.267Z,-6.02
2023-02-06T06:16:00.055Z,-5.70
2023-02-06T06:19:02.280Z,-5.84
2023-02-06T06:22:05.188Z,-5.54
2023-02-06T06:25:07.787Z,-5.63
2023-02-06T06:28:12.779Z,-5.73
2023-02-06T06:31:15.339Z,-5.68
2023-02-06T06:34:18.665Z,-5.66
2023-02-06T06:37:20.932Z,-5.49
2023-02-06T06:40:23.596Z,-5.56
2023-02-06T06:43:26.013Z,-5.30
2023-02-06T06:46:28.884Z,-4.98
2023-02-06T06:49:31.422Z,-4.81
2023-02-06T06:52:34.277Z,-4.93
2023-02-06T06:55:37.919Z,-4.60
2023-02-06T06:58:41.772Z,-4.48
2023-02-06T07:01:44.083Z,-4.21
2023-02-06T07:04:47.826Z,-4.06
2023-02-06T07:07:50.558Z,-3.76
2023-02-06T07:10:53.336Z,-3.81
2023-02-06T07:13:55.676Z,-3.74
2023-02-06T07:16:59.972Z,-3.98
2023-02-06T07:20:02.916Z,-3.79
2023-02-06T07:23:07.599Z,-3.48
2023-02-06T07:26:10.107Z,-3.96
2023-02-06T07:29:13.032Z,-3.76
2023-02-06T07:32:15.391Z,-3.39
2023-02-06T07:35:18.393Z,-3.35
2023-02-06T07:38:20.777Z,-3.28
2023-02-06T07:41:26.190Z,-3.22
2023-02-06T07:44:28.865Z,-2.88
2023-02-06T07:47:32.238Z,-2.79
2023-02-06T09:34:30.676Z,0.39
2023-02-06T09:37:33.671Z,0.20
2023-02-06T09:40:39.832Z,0.29
2023-02-06T09:43:51.473Z,0.47
2023-02-06T09:47:18.968Z,0.72
2023-02-06T09:50:33.293Z,0.81
2023-02-06T09:53:59.774Z,0.93
2023-02-06T09:57:13.015Z,0.91
2023-02-06T10:00:36.001Z,0.69
2023-02-06T10:04:17.507Z,0.65
2023-02-06T10:07:57.836Z,0.87
2023-02-06T10:11:42.964Z,1.02
2023-02-06T10:14:54.510Z,0.93
2023-02-06T10:18:04.655Z,0.53
2023-02-06T10:21:28.826Z,0.47
2023-02-06T10:24:52.536Z,0.79
2023-02-06T10:27:59.143Z,0.61
2023-02-06T10:31:26.519Z,0.83
2023-02-06T10:34:52.324Z,0.88
2023-02-06T10:38:26.016Z,0.73
2023-02-06T10:41:31.059Z,0.95
2023-02-06T10:44:39.903Z,0.95
2023-02-06T10:47:59.494Z,0.89
2023-02-06T10:51:26.414Z,0.41
2023-02-06T10:54:33.587Z,0.66
2023-02-06T10:57:37.172Z,0.73
2023-02-06T11:00:40.646Z,1.05
2023-02-06T11:04:07.104Z,1.32
2023-02-06T11:07:17.652Z,1.07
2023-02-06T11:10:23.745Z,1.03
2023-02-06T11:13:34.541Z,0.89
2023-02-06T11:16:37.871Z,1.18
2023-02-06T11:19:44.460Z,1.22
2023-02-06T11:22:52.806Z,1.05
2023-02-06T11:26:15.839Z,0.97
2023-02-06T11:29:22.522Z,1.17
2023-02-06T11:32:37.057Z,1.27
2023-02-06T11:35:54.698Z,1.29
2023-02-06T11:39:20.167Z,1.03
2023-02-06T11:42:24.940Z,1.03
2023-02-06T11:45:32.946Z,1.25
2023-02-06T11:48:37.820Z,1.29
2023-02-06T11:51:54.210Z,1.54
2023-02-06T11:55:01.805Z,1.29
2023-02-06T11:58:18.465Z,1.37
2023-02-06T12:01:22.154Z,1.28
2023-02-06T12:04:36.684Z,1.22
2023-02-06T12:07:49.641Z,1.21
2023-02-06T12:11:04.089Z,1.29
2023-02-06T12:14:11.448Z,1.23
2023-02-06T12:17:39.916Z,1.44
2023-02-06T12:20:54.373Z,1.51
2023-02-06T12:24:02.817Z,1.70
2023-02-06T12:27:16.897Z,1.60
2023-02-06T12:30:56.131Z,1.64
2023-02-06T12:34:16.034Z,1.66
2023-02-06T12:37:31.472Z,1.41
2023-02-06T12:40:56.483Z,1.56
2023-02-06T12:44:18.300Z,1.72
2023-02-06T12:47:43.438Z,1.70
2023-02-06T12:51:07.927Z,1.51
2023-02-06T12:54:32.432Z,1.52
2023-02-06T12:57:35.684Z,1.53
2023-02-06T13:00:51.993Z,1.24
2023-02-06T13:04:04.402Z,1.10
2023-02-06T13:07:11.506Z,1.28
2023-02-06T13:10:19.663Z,1.21
2023-02-06T13:13:29.188Z,1.07
2023-02-06T13:16:43.976Z,1.13
2023-02-06T13:19:46.178Z,1.15
2023-02-06T13:23:12.584Z,0.99
2023-02-06T13:26:14.926Z,0.99
2023-02-06T13:29:28.852Z,1.18
2023-02-06T13:32:41.004Z,1.07
2023-02-06T13:36:05.632Z,1.04
2023-02-06T13:39:29.416Z,1.18
2023-02-06T13:42:50.689Z,1.07
2023-02-06T13:46:00.323Z,1.18
2023-02-06T13:49:41.907Z,1.28
2023-02-06T13:53:20.358Z,1.23
2023-02-06T13:57:04.831Z,1.45
2023-02-06T14:00:25.734Z,1.36
2023-02-06T14:03:34.752Z,1.32
2023-02-06T14:06:55.093Z,1.04
2023-02-06T14:10:35.715Z,1.02
2023-02-06T14:13:40.650Z,0.98
2023-02-06T14:17:18.630Z,0.90
2023-02-06T14:20:58.693Z,0.79
2023-02-06T14:24:18.840Z,0.69
2023-02-06T14:27:35.166Z,0.85
2023-02-06T14:31:06.279Z,0.83
2023-02-06T14:34:23.581Z,0.76
2023-02-06T14:37:33.670Z,0.77
2023-02-06T14:40:42.466Z,0.58
2023-02-06T14:43:47.613Z,0.54
2023-02-06T14:46:50.183Z,0.60
2023-02-06T14:49:55.077Z,0.56
2023-02-06T14:53:03.413Z,0.47
2023-02-06T14:56:07.634Z,0.54
2023-02-06T14:59:15.140Z,0.44
2023-02-06T15:02:37.685Z,0.52
2023-02-06T15:05:41.603Z,0.54
2023-02-06T15:08:51.182Z,0.42
2023-02-06T15:11:56.505Z,0.53
2023-02-06T15:15:05.434Z,0.36
2023-02-06T15:18:18.206Z,0.37
2023-02-06T15:21:23.643Z,0.18
2023-02-06T15:24:37.189Z,0.16
2023-02-06T15:27:41.126Z,0.07
2023-02-06T15:30:43.729Z,0.16
2023-02-06T15:33:54.085Z,0.13
2023-02-06T15:36:56.340Z,0.04
2023-02-06T15:40:13.466Z,-0.06
2023-02-06T15:43:24.613Z,0.09
2023-02-06T15:46:30.442Z,0.01
2023-02-06T15:49:32.569Z,0.04
2023-02-06T15:52:45.460Z,-0.03
2023-02-06T15:55:56.538Z,0.08
2023-02-06T15:59:04.637Z,-0.08
2023-02-06T16:02:07.983Z,-0.29
2023-02-06T16:05:34.405Z,-0.16
2023-02-06T16:08:38.065Z,-0.15
2023-02-06T16:11:46.590Z,-0.27
2023-02-06T16:15:00.590Z,-0.31
2023-02-06T16:18:25.709Z,-0.35
2023-02-06T16:21:32.526Z,-0.37
2023-02-06T16:24:35.166Z,-0.37
2023-02-06T16:27:42.823Z,-0.33
2023-02-06T16:30:58.573Z,-0.43
2023-02-06T16:34:03.322Z,-0.31
2023-02-06T16:37:12.274Z,-0.51
2023-02-06T16:40:14.936Z,-0.38
2023-02-06T16:43:17.618Z,-0.38
2023-02-06T16:46:21.296Z,-0.47
2023-02-06T16:49:24.273Z,-0.66
2023-02-06T16:52:32.136Z,-0.65
2023-02-06T16:55:34.800Z,-0.72
2023-02-06T16:58:37.043Z,-0.86
2023-02-06T17:01:39.738Z,-0.89
2023-02-06T17:04:42.206Z,-0.95
2023-02-06T17:07:45.276Z,-0.76
2023-02-06T17:10:48.920Z,-0.83
2023-02-06T17:13:51.510Z,-0.93
2023-02-06T17:16:55.663Z,-1.01
2023-02-06T17:19:58.401Z,-1.02
2023-02-06T17:23:01.193Z,-1.04
2023-02-06T17:26:04.390Z,-0.93
2023-02-06T17:29:06.673Z,-0.93
2023-02-06T17:32:09.414Z,-1.08
2023-02-06T17:35:12.300Z,-1.07
2023-02-06T17:38:15.096Z,-0.99
2023-02-06T17:41:17.402Z,-1.00
2023-02-06T17:44:20.138Z,-1.02
2023-02-06T17:47:22.406Z,-0.95
2023-02-06T17:50:26.756Z,-0.88
2023-02-06T17:53:29.033Z,-0.98
2023-02-06T17:56:32.301Z,-1.05
2023-02-06T17:59:34.796Z,-1.05
2023-02-06T18:02:37.982Z,-1.02
2023-02-06T18:05:40.581Z,-1.07
2023-02-06T18:08:43.691Z,-1.22
2023-02-06T18:11:46.561Z,-1.20
2023-02-06T18:14:49.982Z,-1.08
2023-02-06T18:17:54.853Z,-1.13
2023-02-06T18:20:59.729Z,-1.28
2023-02-06T18:24:02.363Z,-1.34
2023-02-06T18:27:06.287Z,-1.22
2023-02-06T18:30:10.064Z,-1.30
2023-02-06T18:33:12.878Z,-1.32
2023-02-06T18:36:15.875Z,-1.25
2023-02-06T18:39:18.558Z,-1.26
2023-02-06T18:42:40.141Z,-1.32
2023-02-06T18:45:43.143Z,-1.35
2023-02-06T18:48:46.850Z,-1.43
2023-02-06T18:51:49.091Z,-1.52
2023-02-06T18:54:51.650Z,-1.66
2023-02-06T18:57:53.974Z,-1.59
2023-02-06T19:00:56.665Z,-1.68
2023-02-06T19:04:00.509Z,-1.77
2023-02-06T19:07:03.261Z,-1.72
2023-02-06T19:10:10.437Z,-1.79
2023-02-06T19:13:12.999Z,-1.84
2023-02-06T19:16:17.611Z,-1.87
2023-02-06T19:19:20.284Z,-1.86
2023-02-06T19:22:23.417Z,-1.89
2023-02-06T19:25:26.592Z,-2.04
2023-02-06T19:28:28.914Z,-2.11
2023-02-06T19:31:32.349Z,-2.10
2023-02-06T19:34:37.128Z,-1.90
2023-02-06T19:37:40.146Z,-1.99
2023-02-06T19:40:44.141Z,-2.23
2023-02-06T19:43:48.171Z,-2.01
2023-02-06T19:46:50.456Z,-2.08
2023-02-06T19:49:53.137Z,-2.01
2023-02-06T19:52:55.399Z,-2.02
2023-02-06T19:55:57.995Z,-1.95
2023-02-06T19:59:03.600Z,-2.06
2023-02-06T20:02:06.135Z,-2.06
2023-02-06T20:05:09.156Z,-2.05
2023-02-06T20:08:11.426Z,-1.85
2023-02-06T20:11:20.100Z,-1.83
2023-02-06T20:14:23.759Z,-1.82
2023-02-06T20:17:26.984Z,-1.83
2023-02-06T20:20:29.316Z,-1.93
2023-02-06T20:23:37.472Z,-1.82
2023-02-06T20:26:41.976Z,-1.90
2023-02-06T20:29:45.878Z,-1.89
2023-02-06T20:32:48.182Z,-2.06
2023-02-06T20:35:50.745Z,-2.21
2023-02-06T20:38:56.352Z,-2.38
2023-02-06T20:41:59.095Z,-2.27
2023-02-06T20:45:01.393Z,-2.21
2023-02-06T20:48:04.201Z,-2.20
2023-02-06T20:51:06.432Z,-2.13
2023-02-06T20:54:11.412Z,-2.22
2023-02-06T20:57:15.369Z,-2.20
2023-02-06T21:00:19.235Z,-2.24
2023-02-06T21:03:22.381Z,-2.31
2023-02-06T21:06:25.802Z,-2.44
2023-02-06T21:09:28.431Z,-2.38
2023-02-06T21:12:31.017Z,-2.45
2023-02-06T21:15:33.441Z,-2.41
2023-02-06T21:18:37.964Z,-2.41
2023-02-06T21:21:40.803Z,-2.46
2023-02-06T21:24:43.337Z,-2.27
2023-02-06T21:27:45.635Z,-2.34
2023-02-06T21:30:49.523Z,-2.29
2023-02-06T21:33:52.617Z,-2.52
2023-02-06T21:36:55.282Z,-2.61
2023-02-06T21:39:57.688Z,-2.63
2023-02-06T21:43:00.278Z,-2.71
2023-02-06T21:46:04.742Z,-2.67
2023-02-06T21:49:09.272Z,-2.88
2023-02-06T21:52:11.509Z,-2.87
2023-02-06T21:55:14.939Z,-2.82
2023-02-06T21:58:17.190Z,-2.97
2023-02-06T22:01:24.583Z,-2.92
2023-02-06T22:04:27.247Z,-2.96
2023-02-06T22:07:29.495Z,-2.96
2023-02-06T22:10:35.883Z,-3.15
2023-02-06T22:13:38.086Z,-3.36
2023-02-06T22:16:41.392Z,-3.49
2023-02-06T22:19:43.671Z,-3.60
2023-02-06T22:22:46.418Z,-4.20
2023-02-06T22:25:48.673Z,-4.33
2023-02-06T22:28:51.322Z,-4.31
2023-02-06T22:31:53.880Z,-4.35
2023-02-06T22:35:00.049Z,-4.69
2023-02-06T22:38:02.295Z,-5.01
2023-02-06T22:41:07.754Z,-5.17
2023-02-06T22:44:12.580Z,-5.54
2023-02-06T22:47:15.309Z,-5.23
2023-02-06T22:50:17.948Z,-5.24
2023-02-06T22:53:41.151Z,-5.10
2023-02-06T22:56:44.552Z,-5.25
2023-02-06T22:59:47.279Z,-5.18
2023-02-06T23:02:49.938Z,-5.25
2023-02-06T23:05:52.675Z,-5.74
2023-02-06T23:08:56.514Z,-5.89
2023-02-06T23:11:59.990Z,-5.86
2023-02-06T23:15:02.313Z,-5.80
2023-02-06T23:18:04.950Z,-5.87
2023-02-06T23:21:13.537Z,-5.90
2023-02-06T23:24:17.106Z,-5.80
2023-02-06T23:27:20.996Z,-5.75
2023-02-06T23:30:23.835Z,-5.71
2023-02-06T23:33:26.118Z,-5.71
2023-02-06T23:36:29.340Z,-5.94
2023-02-06T23:39:31.565Z,-5.94
2023-02-06T23:42:34.552Z,-5.83
2023-02-06T23:45:37.557Z,-5.89
2023-02-06T23:48:40.756Z,-6.00
2023-02-06T23:51:43.129Z,-6.05
2023-02-06T23:54:45.720Z,-6.06
2023-02-06T23:57:48.013Z,-6.25
